createdAt,value
2019-02-17T00:00:40.154Z,7.70
2019-02-17T00:03:08.793Z,7.60
2019-02-17T00:05:37.456Z,7.70
2019-02-17T00:08:06.208Z,7.70
2019-02-17T00:10:34.954Z,7.70
2019-02-17T00:13:03.615Z,7.70
2019-02-17T00:15:32.332Z,7.60
2019-02-17T00:18:00.962Z,7.70
2019-02-17T00:20:29.739Z,7.70
2019-02-17T00:22:58.445Z,7.70
2019-02-17T00:25:27.117Z,7.70
2019-02-17T00:27:55.768Z,7.70
2019-02-17T00:30:24.455Z,7.70
2019-02-17T00:32:53.022Z,7.60
2019-02-17T00:35:21.663Z,7.60
2019-02-17T00:37:50.291Z,7.50
2019-02-17T00:40:18.927Z,7.40
2019-02-17T00:42:47.579Z,7.40
2019-02-17T00:45:16.280Z,7.40
2019-02-17T00:47:44.954Z,7.30
2019-02-17T00:50:13.609Z,7.40
2019-02-17T00:52:42.303Z,7.40
2019-02-17T00:55:10.949Z,7.50
2019-02-17T00:57:39.596Z,7.50
2019-02-17T01:00:12.220Z,7.60
2019-02-17T01:02:40.792Z,7.40
2019-02-17T01:05:09.455Z,7.40
2019-02-17T01:07:38.157Z,7.40
2019-02-17T01:10:08.238Z,7.50
2019-02-17T01:12:36.892Z,7.50
2019-02-17T01:15:11.438Z,7.60
2019-02-17T01:17:40.094Z,7.60
2019-02-17T01:20:09.934Z,7.70
2019-02-17T01:22:38.640Z,7.80
2019-02-17T01:25:10.840Z,7.80
2019-02-17T01:27:39.469Z,7.80
2019-02-17T01:30:11.265Z,7.80
2019-02-17T01:32:39.914Z,7.50
2019-02-17T01:35:08.759Z,7.30
2019-02-17T01:37:37.385Z,7.30
2019-02-17T01:40:08.995Z,7.20
2019-02-17T01:42:37.647Z,7.10
2019-02-17T01:45:08.860Z,7.00
2019-02-17T01:47:37.508Z,7.00
2019-02-17T01:50:08.560Z,7.00
2019-02-17T01:52:37.239Z,6.90
2019-02-17T01:55:07.799Z,7.00
2019-02-17T01:57:36.457Z,7.00
2019-02-17T02:00:11.067Z,7.00
2019-02-17T02:02:39.703Z,7.00
2019-02-17T02:05:08.361Z,7.10
2019-02-17T02:07:37.063Z,7.20
2019-02-17T02:10:08.521Z,7.00
2019-02-17T02:12:37.935Z,7.00
2019-02-17T02:15:11.191Z,7.00
2019-02-17T02:17:40.122Z,7.10
2019-02-17T02:20:13.105Z,6.90
2019-02-17T02:22:41.825Z,6.90
2019-02-17T02:25:10.479Z,6.80
2019-02-17T02:27:39.053Z,6.70
2019-02-17T02:30:10.664Z,6.60
2019-02-17T02:32:39.328Z,6.60
2019-02-17T02:35:07.958Z,6.60
2019-02-17T02:37:36.663Z,6.60
2019-02-17T02:40:06.215Z,6.60
2019-02-17T02:42:34.871Z,6.50
2019-02-17T02:45:03.987Z,6.60
2019-02-17T02:47:32.622Z,6.60
2019-02-17T02:50:01.281Z,6.60
2019-02-17T02:52:29.892Z,6.70
2019-02-17T02:54:58.541Z,6.70
2019-02-17T02:57:27.191Z,6.70
2019-02-17T02:59:55.878Z,6.60
2019-02-17T03:02:24.529Z,6.50
2019-02-17T03:04:53.185Z,6.50
2019-02-17T03:07:21.883Z,6.40
2019-02-17T03:09:50.540Z,6.40
2019-02-17T03:12:19.194Z,6.50
2019-02-17T03:14:48.556Z,6.40
2019-02-17T03:17:17.206Z,6.30
2019-02-17T03:19:45.879Z,6.30
2019-02-17T03:22:14.538Z,6.20
2019-02-17T03:24:43.183Z,6.20
2019-02-17T03:27:11.818Z,6.20
2019-02-17T03:29:40.437Z,6.30
2019-02-17T03:32:09.119Z,6.20
2019-02-17T03:34:37.738Z,6.30
2019-02-17T03:37:06.441Z,6.40
2019-02-17T03:39:35.070Z,6.30
2019-02-17T03:42:03.716Z,6.20
2019-02-17T03:44:32.427Z,6.20
2019-02-17T03:47:01.061Z,6.10
2019-02-17T03:49:29.702Z,6.00
2019-02-17T03:51:58.434Z,6.00
2019-02-17T03:54:27.017Z,6.10
2019-02-17T03:56:55.657Z,6.10
2019-02-17T03:59:24.358Z,6.10
2019-02-17T04:01:52.985Z,6.10
2019-02-17T04:04:21.560Z,6.00
2019-02-17T04:06:50.245Z,6.00
2019-02-17T04:09:18.828Z,5.90
2019-02-17T04:11:47.476Z,6.00
2019-02-17T04:14:16.116Z,5.90
2019-02-17T04:16:45.361Z,5.90
2019-02-17T04:19:13.930Z,5.90
2019-02-17T04:21:42.649Z,5.90
2019-02-17T04:24:11.272Z,5.80
2019-02-17T04:26:39.928Z,5.80
2019-02-17T04:29:10.306Z,5.80
2019-02-17T04:31:38.910Z,5.80
2019-02-17T04:34:07.562Z,5.70
2019-02-17T04:36:36.246Z,5.60
2019-02-17T04:39:05.687Z,5.60
2019-02-17T04:41:34.356Z,5.50
2019-02-17T04:44:02.917Z,5.50
2019-02-17T04:46:31.577Z,5.50
2019-02-17T04:49:00.206Z,5.40
2019-02-17T04:51:28.916Z,5.20
2019-02-17T04:53:57.587Z,5.10
2019-02-17T04:56:26.233Z,5.20
2019-02-17T04:58:54.940Z,5.30
2019-02-17T05:01:23.603Z,5.30
2019-02-17T05:03:52.245Z,5.30
2019-02-17T05:06:20.949Z,5.40
2019-02-17T05:08:49.683Z,5.30
2019-02-17T05:11:18.337Z,5.40
2019-02-17T05:13:47.028Z,5.40
2019-02-17T05:16:15.690Z,5.50
2019-02-17T05:18:44.972Z,5.50
2019-02-17T05:21:13.607Z,5.50
2019-02-17T05:23:42.161Z,5.50
2019-02-17T05:26:10.686Z,5.50
2019-02-17T05:28:39.383Z,5.50
2019-02-17T05:31:08.024Z,5.50
2019-02-17T05:33:36.673Z,5.50
2019-02-17T05:36:05.323Z,5.50
2019-02-17T05:38:33.876Z,5.50
2019-02-17T05:41:02.514Z,5.20
2019-02-17T05:43:31.216Z,5.10
2019-02-17T05:45:59.878Z,5.10
2019-02-17T05:48:29.451Z,5.10
2019-02-17T05:50:58.533Z,5.10
2019-02-17T05:53:27.179Z,5.10
2019-02-17T05:55:55.828Z,5.10
2019-02-17T05:58:24.549Z,5.10
2019-02-17T06:01:03.034Z,5.20
2019-02-17T06:03:23.403Z,5.20
2019-02-17T06:05:52.035Z,5.20
2019-02-17T06:08:20.694Z,5.30
2019-02-17T06:10:49.351Z,5.30
2019-02-17T06:13:18.037Z,5.30
2019-02-17T06:15:46.688Z,5.30
2019-02-17T06:18:15.317Z,5.30
2019-02-17T06:20:44.877Z,5.40
2019-02-17T06:23:13.536Z,5.30
2019-02-17T06:25:42.093Z,5.40
2019-02-17T06:28:10.829Z,5.40
2019-02-17T06:30:39.464Z,5.50
2019-02-17T06:33:08.099Z,5.40
2019-02-17T06:35:36.741Z,5.50
2019-02-17T06:38:05.391Z,5.50
2019-02-17T06:40:34.018Z,5.60
2019-02-17T06:43:02.727Z,5.70
2019-02-17T06:45:31.385Z,5.70
2019-02-17T06:48:00.022Z,5.80
2019-02-17T06:50:28.712Z,6.00
2019-02-17T06:52:57.372Z,6.70
2019-02-17T06:55:27.588Z,7.60
2019-02-17T06:57:56.400Z,8.70
2019-02-17T07:00:32.610Z,9.80
2019-02-17T07:03:01.253Z,10.10
2019-02-17T07:05:31.485Z,10.10
2019-02-17T07:08:00.156Z,10.10
2019-02-17T07:10:28.838Z,10.40
2019-02-17T07:12:57.505Z,10.00
2019-02-17T07:15:26.137Z,9.50
2019-02-17T07:17:54.842Z,9.80
2019-02-17T07:20:23.505Z,9.90
2019-02-17T07:22:52.811Z,10.90
2019-02-17T07:25:29.845Z,11.00
2019-02-17T07:27:51.814Z,11.40
2019-02-17T07:30:20.413Z,11.30
2019-02-17T07:32:49.112Z,11.70
2019-02-17T07:35:17.749Z,12.10
2019-02-17T07:37:46.404Z,13.30
2019-02-17T07:40:15.111Z,14.10
2019-02-17T07:42:43.814Z,14.80
2019-02-17T07:45:12.408Z,16.00
2019-02-17T07:47:41.132Z,16.60
2019-02-17T07:50:10.701Z,16.40
2019-02-17T07:52:39.338Z,16.70
2019-02-17T07:55:10.258Z,17.10
2019-02-17T07:57:38.890Z,17.90
2019-02-17T08:00:10.368Z,18.00
2019-02-17T08:02:39.595Z,18.70
2019-02-17T08:05:09.200Z,18.90
2019-02-17T08:07:37.870Z,18.90
2019-02-17T08:10:09.078Z,20.20
2019-02-17T08:12:37.717Z,19.90
2019-02-17T08:15:08.866Z,20.20
2019-02-17T08:17:37.575Z,20.80
2019-02-17T08:20:09.023Z,21.00
2019-02-17T08:22:37.657Z,20.70
2019-02-17T08:25:08.316Z,20.80
2019-02-17T08:27:36.970Z,21.40
2019-02-17T08:30:13.294Z,21.30
2019-02-17T08:32:43.982Z,21.20
2019-02-17T08:35:12.172Z,21.90
2019-02-17T08:37:40.898Z,21.70
2019-02-17T08:40:10.606Z,22.60
2019-02-17T08:42:39.237Z,22.60
2019-02-17T08:45:09.744Z,23.50
2019-02-17T08:47:38.385Z,24.20
2019-02-17T08:50:10.085Z,23.80
2019-02-17T08:52:38.795Z,22.80
2019-02-17T08:55:09.633Z,23.10
2019-02-17T08:57:38.307Z,23.50
2019-02-17T09:00:12.640Z,24.10
2019-02-17T09:02:41.296Z,24.70
2019-02-17T09:05:09.877Z,23.50
2019-02-17T09:07:38.520Z,24.00
2019-02-17T09:10:10.276Z,25.70
2019-02-17T09:12:38.950Z,24.80
2019-02-17T09:15:12.438Z,24.40
2019-02-17T09:17:41.100Z,25.10
2019-02-17T09:20:11.310Z,25.50
2019-02-17T09:22:39.992Z,25.30
2019-02-17T09:25:10.722Z,25.80
2019-02-17T09:27:39.436Z,26.00
2019-02-17T09:30:11.291Z,26.70
2019-02-17T09:32:39.950Z,27.80
2019-02-17T09:35:08.594Z,27.60
2019-02-17T09:37:37.289Z,27.00
2019-02-17T09:40:09.045Z,26.50
2019-02-17T09:42:37.685Z,27.70
2019-02-17T09:45:11.990Z,26.70
2019-02-17T09:47:40.657Z,26.60
2019-02-17T09:50:13.560Z,27.00
2019-02-17T09:52:42.347Z,26.70
2019-02-17T09:55:11.321Z,27.50
2019-02-17T09:57:39.992Z,27.40
2019-02-17T10:00:13.929Z,26.90
2019-02-17T10:02:42.587Z,26.60
2019-02-17T10:05:12.123Z,26.40
2019-02-17T10:07:40.847Z,27.90
2019-02-17T10:10:14.721Z,27.90
2019-02-17T10:12:43.407Z,28.70
2019-02-17T10:15:13.501Z,28.20
2019-02-17T10:17:42.184Z,26.80
2019-02-17T10:20:12.841Z,26.50
2019-02-17T10:22:41.556Z,26.00
2019-02-17T10:25:10.618Z,25.70
2019-02-17T10:27:39.270Z,25.50
2019-02-17T10:30:14.887Z,25.80
2019-02-17T10:32:43.533Z,26.30
2019-02-17T10:35:12.209Z,25.30
2019-02-17T10:37:40.931Z,25.10
2019-02-17T10:40:17.721Z,26.00
2019-02-17T10:42:46.460Z,25.10
2019-02-17T10:45:15.142Z,25.10
2019-02-17T10:47:43.807Z,25.40
2019-02-17T10:50:13.227Z,26.20
2019-02-17T10:52:41.881Z,26.10
2019-02-17T10:55:12.535Z,25.50
2019-02-17T10:57:41.244Z,24.50
2019-02-17T11:00:13.664Z,23.80
2019-02-17T11:02:47.137Z,23.00
2019-02-17T11:05:12.689Z,22.60
2019-02-17T11:07:41.336Z,22.70
2019-02-17T11:10:11.393Z,23.30
2019-02-17T11:12:40.107Z,23.70
2019-02-17T11:15:19.289Z,23.70
2019-02-17T11:17:48.037Z,23.40
2019-02-17T11:20:16.679Z,23.40
2019-02-17T11:22:45.345Z,22.90
2019-02-17T11:25:14.067Z,23.00
2019-02-17T11:27:42.708Z,23.00
2019-02-17T11:30:17.254Z,23.10
2019-02-17T11:32:45.901Z,22.70
2019-02-17T11:35:14.565Z,22.50
2019-02-17T11:37:45.112Z,23.40
2019-02-17T11:40:13.666Z,23.70
2019-02-17T11:42:42.311Z,23.60
2019-02-17T11:45:13.706Z,23.30
2019-02-17T11:47:42.363Z,23.40
2019-02-17T11:50:11.012Z,23.30
2019-02-17T11:52:39.708Z,22.80
2019-02-17T11:55:13.611Z,22.80
2019-02-17T11:57:42.255Z,22.90
2019-02-17T12:00:22.039Z,23.00
2019-02-17T12:02:50.695Z,23.00
2019-02-17T12:05:19.338Z,22.90
2019-02-17T12:07:48.045Z,23.00
2019-02-17T12:10:16.698Z,23.40
2019-02-17T12:12:45.346Z,23.70
2019-02-17T12:15:14.555Z,24.00
2019-02-17T12:17:43.203Z,23.90
2019-02-17T12:20:34.706Z,24.20
2019-02-17T12:23:07.655Z,23.80
2019-02-17T12:25:37.887Z,23.60
2019-02-17T12:28:08.221Z,23.30
2019-02-17T12:30:37.902Z,23.10
2019-02-17T12:33:06.555Z,22.70
2019-02-17T12:35:35.964Z,22.70
2019-02-17T12:38:04.601Z,22.40
2019-02-17T12:40:33.259Z,22.30
2019-02-17T12:43:01.976Z,22.20
2019-02-17T12:45:30.641Z,22.20
2019-02-17T12:47:59.280Z,21.70
2019-02-17T12:50:27.988Z,21.40
2019-02-17T12:52:56.625Z,21.30
2019-02-17T12:55:25.296Z,21.30
2019-02-17T12:57:54.009Z,21.40
2019-02-17T13:00:22.669Z,21.10
2019-02-17T13:02:51.309Z,20.90
2019-02-17T13:05:20.027Z,20.70
2019-02-17T13:07:48.675Z,20.80
2019-02-17T13:10:17.349Z,20.80
2019-02-17T13:12:46.107Z,20.80
2019-02-17T13:15:15.825Z,20.80
2019-02-17T13:17:44.477Z,20.90
2019-02-17T13:20:14.374Z,20.80
2019-02-17T13:22:43.037Z,20.60
2019-02-17T13:25:16.617Z,20.50
2019-02-17T13:27:45.349Z,20.40
2019-02-17T13:30:22.630Z,20.40
2019-02-17T13:32:51.337Z,20.40
2019-02-17T13:35:19.993Z,20.30
2019-02-17T13:37:49.591Z,20.20
2019-02-17T13:40:18.280Z,20.20
2019-02-17T13:42:47.066Z,20.20
2019-02-17T13:45:17.205Z,20.10
2019-02-17T13:47:45.889Z,20.20
2019-02-17T13:50:17.672Z,20.10
2019-02-17T13:52:46.255Z,20.10
2019-02-17T13:55:15.005Z,20.10
2019-02-17T13:57:43.576Z,20.10
2019-02-17T14:00:19.448Z,20.10
2019-02-17T14:02:48.103Z,20.00
2019-02-17T14:05:16.741Z,19.90
2019-02-17T14:07:45.443Z,19.80
2019-02-17T14:10:14.498Z,19.70
2019-02-17T14:12:43.136Z,19.60
2019-02-17T14:15:19.582Z,19.60
2019-02-17T14:17:48.159Z,19.50
2019-02-17T14:20:16.800Z,19.50
2019-02-17T14:22:45.533Z,19.40
2019-02-17T14:25:14.187Z,19.40
2019-02-17T14:27:42.820Z,19.40
2019-02-17T14:30:13.577Z,19.30
2019-02-17T14:32:42.218Z,19.30
2019-02-17T14:35:10.872Z,19.40
2019-02-17T14:37:39.566Z,19.30
2019-02-17T14:40:13.213Z,19.20
2019-02-17T14:42:41.796Z,19.20
2019-02-17T14:45:12.660Z,19.20
2019-02-17T14:47:41.302Z,19.10
2019-02-17T14:50:10.381Z,19.00
2019-02-17T14:52:39.066Z,19.00
2019-02-17T14:55:12.026Z,18.90
2019-02-17T14:57:40.665Z,18.70
2019-02-17T15:00:17.078Z,18.70
2019-02-17T15:02:45.739Z,18.70
2019-02-17T15:05:14.410Z,18.60
2019-02-17T15:07:43.111Z,18.50
2019-02-17T15:10:13.035Z,18.40
2019-02-17T15:12:41.701Z,18.40
2019-02-17T15:15:15.347Z,18.50
2019-02-17T15:17:44.013Z,18.40
2019-02-17T15:20:18.589Z,18.30
2019-02-17T15:22:47.299Z,18.20
2019-02-17T15:25:15.947Z,18.20
2019-02-17T15:27:44.594Z,18.10
2019-02-17T15:30:15.164Z,18.10
2019-02-17T15:32:43.819Z,18.10
2019-02-17T15:35:12.516Z,18.10
2019-02-17T15:37:41.192Z,18.00
2019-02-17T15:40:14.886Z,17.90
2019-02-17T15:42:44.368Z,17.80
2019-02-17T15:45:14.057Z,17.80
2019-02-17T15:47:42.701Z,17.80
2019-02-17T15:50:13.509Z,17.70
2019-02-17T15:52:42.199Z,17.60
2019-02-17T15:55:12.446Z,17.60
2019-02-17T15:57:41.098Z,17.60
2019-02-17T16:00:15.065Z,17.50
2019-02-17T16:02:43.724Z,17.40
2019-02-17T16:05:12.371Z,17.40
2019-02-17T16:07:41.081Z,17.30
2019-02-17T16:10:16.825Z,17.10
2019-02-17T16:12:45.563Z,17.10
2019-02-17T16:15:23.132Z,16.90
2019-02-17T16:17:51.829Z,16.80
2019-02-17T16:20:20.470Z,16.60
2019-02-17T16:22:49.131Z,16.50
2019-02-17T16:25:17.841Z,16.40
2019-02-17T16:27:46.483Z,16.30
2019-02-17T16:30:22.991Z,16.10
2019-02-17T16:32:51.637Z,15.90
2019-02-17T16:35:20.306Z,15.70
2019-02-17T16:37:49.013Z,15.50
2019-02-17T16:40:18.580Z,15.40
2019-02-17T16:42:47.239Z,15.20
2019-02-17T16:45:16.773Z,15.00
2019-02-17T16:47:45.540Z,14.90
2019-02-17T16:50:20.347Z,14.80
2019-02-17T16:52:49.059Z,14.70
2019-02-17T16:55:17.699Z,14.60
2019-02-17T16:57:46.451Z,14.50
2019-02-17T17:00:19.191Z,14.40
2019-02-17T17:02:48.038Z,14.30
2019-02-17T17:05:16.805Z,14.30
2019-02-17T17:07:45.538Z,14.20
2019-02-17T17:10:14.177Z,14.00
2019-02-17T17:12:42.844Z,13.90
2019-02-17T17:15:11.565Z,13.70
2019-02-17T17:17:40.216Z,13.60
2019-02-17T17:20:11.376Z,13.50
2019-02-17T17:22:40.096Z,13.50
2019-02-17T17:25:10.561Z,13.50
2019-02-17T17:27:41.303Z,13.50
2019-02-17T17:30:16.877Z,13.50
2019-02-17T17:32:45.523Z,13.40
2019-02-17T17:35:14.181Z,13.40
2019-02-17T17:37:42.974Z,13.40
2019-02-17T17:40:18.421Z,13.30
2019-02-17T17:42:47.131Z,13.30
2019-02-17T17:45:18.263Z,13.30
2019-02-17T17:47:46.942Z,13.20
2019-02-17T17:50:16.343Z,13.10
2019-02-17T17:52:45.034Z,13.10
2019-02-17T17:55:13.870Z,13.00
2019-02-17T17:57:42.587Z,12.90
2019-02-17T18:00:20.427Z,12.90
2019-02-17T18:02:49.116Z,12.80
2019-02-17T18:05:17.771Z,12.80
2019-02-17T18:07:46.418Z,12.80
2019-02-17T18:10:16.144Z,12.70
2019-02-17T18:12:44.791Z,12.60
2019-02-17T18:15:15.234Z,12.60
2019-02-17T18:17:53.431Z,12.50
2019-02-17T18:20:14.430Z,12.50
2019-02-17T18:22:43.086Z,12.50
2019-02-17T18:25:13.003Z,12.50
2019-02-17T18:27:41.769Z,12.40
2019-02-17T18:30:16.696Z,12.30
2019-02-17T18:32:45.688Z,12.20
2019-02-17T18:35:19.702Z,12.10
2019-02-17T18:37:44.680Z,12.10
2019-02-17T18:40:15.352Z,12.10
2019-02-17T18:42:44.029Z,12.00
2019-02-17T18:45:16.602Z,12.00
2019-02-17T18:47:45.243Z,11.90
2019-02-17T18:50:15.961Z,12.00
2019-02-17T18:52:44.696Z,12.00
2019-02-17T18:55:14.058Z,11.90
2019-02-17T18:57:49.507Z,11.80
2019-02-17T19:00:24.643Z,11.70
2019-02-17T19:02:53.300Z,11.70
2019-02-17T19:05:31.507Z,11.60
2019-02-17T19:07:53.861Z,11.60
2019-02-17T19:10:22.523Z,11.50
2019-02-17T19:12:51.192Z,11.50
2019-02-17T19:15:21.586Z,11.50
2019-02-17T19:17:50.243Z,11.50
2019-02-17T19:20:36.737Z,11.40
2019-02-17T19:23:05.388Z,11.30
2019-02-17T19:25:34.047Z,11.20
2019-02-17T19:28:03.736Z,11.20
2019-02-17T19:30:32.720Z,11.20
2019-02-17T19:33:01.376Z,11.20
2019-02-17T19:35:30.088Z,11.10
2019-02-17T19:37:58.735Z,11.10
2019-02-17T19:40:27.392Z,11.10
2019-02-17T19:42:56.101Z,11.10
2019-02-17T19:45:24.756Z,11.10
2019-02-17T19:47:53.411Z,11.10
2019-02-17T19:50:22.138Z,10.90
2019-02-17T19:52:50.910Z,10.90
2019-02-17T19:55:19.568Z,10.80
2019-02-17T19:57:48.287Z,10.70
2019-02-17T20:00:18.434Z,10.70
2019-02-17T20:03:03.401Z,10.70
2019-02-17T20:05:35.260Z,10.70
2019-02-17T20:08:03.928Z,10.60
2019-02-17T20:10:32.641Z,10.50
2019-02-17T20:13:01.295Z,10.50
2019-02-17T20:15:31.516Z,10.40
2019-02-17T20:18:00.336Z,10.50
2019-02-17T20:20:28.983Z,10.50
2019-02-17T20:22:57.653Z,10.50
2019-02-17T20:25:26.363Z,10.40
2019-02-17T20:27:55.015Z,10.30
2019-02-17T20:30:23.669Z,10.50
2019-02-17T20:32:52.385Z,10.50
2019-02-17T20:35:21.035Z,10.50
2019-02-17T20:37:49.701Z,10.50
2019-02-17T20:40:19.027Z,10.50
2019-02-17T20:42:47.676Z,10.50
2019-02-17T20:45:16.346Z,10.40
2019-02-17T20:47:45.072Z,10.30
2019-02-17T20:50:16.084Z,10.20
2019-02-17T20:52:44.726Z,10.20
2019-02-17T20:55:14.233Z,10.10
2019-02-17T20:57:42.887Z,10.00
2019-02-17T21:00:13.672Z,10.00
2019-02-17T21:02:42.477Z,10.00
2019-02-17T21:05:11.233Z,9.90
2019-02-17T21:07:39.870Z,9.80
2019-02-17T21:10:15.883Z,9.80
2019-02-17T21:12:44.527Z,9.80
2019-02-17T21:15:15.579Z,9.70
2019-02-17T21:17:44.278Z,9.70
2019-02-17T21:20:13.242Z,9.70
2019-02-17T21:22:41.893Z,9.80
2019-02-17T21:25:11.906Z,9.80
2019-02-17T21:27:40.570Z,9.90
2019-02-17T21:30:11.962Z,9.90
2019-02-17T21:32:40.667Z,9.90
2019-02-17T21:35:11.802Z,9.80
2019-02-17T21:37:40.436Z,9.70
2019-02-17T21:40:11.033Z,9.70
2019-02-17T21:42:39.615Z,9.70
2019-02-17T21:45:13.965Z,9.60
2019-02-17T21:47:42.585Z,9.60
2019-02-17T21:50:12.425Z,9.60
2019-02-17T21:52:41.958Z,9.50
2019-02-17T21:55:14.869Z,9.50
2019-02-17T21:57:43.982Z,9.50
2019-02-17T22:00:19.303Z,9.50
2019-02-17T22:02:47.984Z,9.40
2019-02-17T22:05:16.599Z,9.30
2019-02-17T22:07:45.329Z,9.30
2019-02-17T22:10:17.934Z,9.20
2019-02-17T22:12:46.593Z,9.20
2019-02-17T22:15:17.866Z,9.10
2019-02-17T22:17:46.548Z,9.00
2019-02-17T22:20:15.168Z,9.00
2019-02-17T22:22:43.874Z,8.80
2019-02-17T22:25:14.092Z,8.80
2019-02-17T22:27:42.731Z,8.70
2019-02-17T22:30:13.043Z,8.70
2019-02-17T22:32:41.695Z,8.70
2019-02-17T22:35:10.342Z,8.70
2019-02-17T22:37:39.038Z,8.70
2019-02-17T22:40:13.846Z,8.70
2019-02-17T22:42:42.559Z,8.70
2019-02-17T22:45:12.112Z,8.70
2019-02-17T22:47:40.755Z,8.70
2019-02-17T22:50:13.883Z,8.60
2019-02-17T22:52:42.513Z,8.60
2019-02-17T22:55:12.359Z,8.50
2019-02-17T22:57:41.049Z,8.50
2019-02-17T23:00:30.534Z,8.50
2019-02-17T23:02:59.253Z,8.40
2019-02-17T23:05:27.890Z,8.60
2019-02-17T23:07:56.551Z,8.60
2019-02-17T23:10:25.228Z,8.50
2019-02-17T23:12:53.893Z,8.50
2019-02-17T23:15:22.544Z,8.50
2019-02-17T23:17:51.251Z,8.50
2019-02-17T23:20:19.961Z,8.50
2019-02-17T23:22:48.560Z,8.50
2019-02-17T23:25:17.250Z,8.40
2019-02-17T23:27:46.009Z,8.40
2019-02-17T23:30:14.646Z,8.30
2019-02-17T23:32:43.356Z,8.30
2019-02-17T23:35:12.001Z,8.20
2019-02-17T23:37:40.574Z,8.20
2019-02-17T23:40:13.151Z,8.20
2019-02-17T23:42:41.798Z,8.20
2019-02-17T23:45:12.257Z,8.30
2019-02-17T23:47:40.972Z,8.30
2019-02-17T23:50:11.412Z,8.40
2019-02-17T23:52:40.060Z,8.30
2019-02-17T23:55:10.078Z,8.30
2019-02-17T23:57:38.739Z,8.30
